sensor_id;sensor_type;location;lat;lon;timestamp;P1;durP1;ratioP1;P2;durP2;ratioP2
21550;SDS011;10936;49.836;7.078;2022-07-23T05:01:07;12.35;;;7.80;;
21550;SDS011;10936;49.836;7.078;2022-07-23T05:03:33;10.35;;;7.30;;
21550;SDS011;10936;49.836;7.078;2022-07-23T05:05:59;11.95;;;8.30;;
21550;SDS011;10936;49.836;7.078;2022-07-23T05:08:24;16.63;;;7.53;;
21550;SDS011;10936;49.836;7.078;2022-07-23T05:10:50;10.68;;;7.45;;
21550;SDS011;10936;49.836;7.078;2022-07-23T05:13:16;12.52;;;7.32;;
21550;SDS011;10936;49.836;7.078;2022-07-23T05:15:43;9.82;;;7.15;;
21550;SDS011;10936;49.836;7.078;2022-07-23T05:18:09;8.68;;;7.43;;
21550;SDS011;10936;49.836;7.078;2022-07-23T05:20:34;10.10;;;7.97;;
21550;SDS011;10936;49.836;7.078;2022-07-23T05:23:00;11.05;;;7.57;;
21550;SDS011;10936;49.836;7.078;2022-07-23T05:25:26;12.75;;;7.15;;
21550;SDS011;10936;49.836;7.078;2022-07-23T05:27:52;10.15;;;6.78;;
21550;SDS011;10936;49.836;7.078;2022-07-23T05:30:17;10.80;;;7.15;;
21550;SDS011;10936;49.836;7.078;2022-07-23T05:32:43;12.35;;;7.07;;
21550;SDS011;10936;49.836;7.078;2022-07-23T05:35:09;10.05;;;6.82;;
21550;SDS011;10936;49.836;7.078;2022-07-23T05:37:35;11.07;;;7.30;;
21550;SDS011;10936;49.836;7.078;2022-07-23T05:40:05;11.85;;;7.72;;
21550;SDS011;10936;49.836;7.078;2022-07-23T05:42:37;11.55;;;7.13;;
21550;SDS011;10936;49.836;7.078;2022-07-23T05:45:05;10.00;;;6.72;;
21550;SDS011;10936;49.836;7.078;2022-07-23T05:47:44;13.15;;;7.53;;
21550;SDS011;10936;49.836;7.078;2022-07-23T05:50:14;11.55;;;7.68;;
21550;SDS011;10936;49.836;7.078;2022-07-23T05:52:40;10.82;;;6.60;;
21550;SDS011;10936;49.836;7.078;2022-07-23T05:55:07;12.05;;;6.75;;
21550;SDS011;10936;49.836;7.078;2022-07-23T05:57:33;11.45;;;6.93;;
21550;SDS011;10936;49.836;7.078;2022-07-23T06:00:00;8.50;;;6.32;;
21550;SDS011;10936;49.836;7.078;2022-07-23T06:02:25;10.40;;;6.65;;
21550;SDS011;10936;49.836;7.078;2022-07-23T06:04:51;9.35;;;5.80;;
21550;SDS011;10936;49.836;7.078;2022-07-23T06:07:17;9.90;;;7.13;;
21550;SDS011;10936;49.836;7.078;2022-07-23T06:09:43;7.72;;;6.45;;
21550;SDS011;10936;49.836;7.078;2022-07-23T06:12:08;12.00;;;6.82;;
21550;SDS011;10936;49.836;7.078;2022-07-23T06:14:34;9.88;;;6.57;;
21550;SDS011;10936;49.836;7.078;2022-07-23T06:17:00;10.70;;;5.85;;
21550;SDS011;10936;49.836;7.078;2022-07-23T06:19:25;8.13;;;5.75;;
21550;SDS011;10936;49.836;7.078;2022-07-23T06:21:51;10.05;;;6.00;;
21550;SDS011;10936;49.836;7.078;2022-07-23T06:24:17;7.60;;;5.93;;
21550;SDS011;10936;49.836;7.078;2022-07-23T06:26:42;10.45;;;6.55;;
21550;SDS011;10936;49.836;7.078;2022-07-23T06:29:08;9.98;;;6.30;;
21550;SDS011;10936;49.836;7.078;2022-07-23T06:31:34;9.15;;;6.20;;
21550;SDS011;10936;49.836;7.078;2022-07-23T06:34:00;7.85;;;6.22;;
21550;SDS011;10936;49.836;7.078;2022-07-23T06:36:26;7.93;;;6.22;;
21550;SDS011;10936;49.836;7.078;2022-07-23T06:38:52;8.10;;;6.13;;
21550;SDS011;10936;49.836;7.078;2022-07-23T06:41:17;7.97;;;6.57;;
21550;SDS011;10936;49.836;7.078;2022-07-23T06:43:43;7.35;;;6.20;;
21550;SDS011;10936;49.836;7.078;2022-07-23T06:46:09;9.25;;;6.50;;
21550;SDS011;10936;49.836;7.078;2022-07-23T06:48:34;10.05;;;6.28;;
21550;SDS011;10936;49.836;7.078;2022-07-23T06:51:01;8.15;;;6.47;;
21550;SDS011;10936;49.836;7.078;2022-07-23T06:53:27;9.52;;;5.47;;
21550;SDS011;10936;49.836;7.078;2022-07-23T06:55:53;6.97;;;5.85;;
21550;SDS011;10936;49.836;7.078;2022-07-23T06:58:18;7.72;;;5.65;;
21550;SDS011;10936;49.836;7.078;2022-07-23T07:00:45;6.78;;;5.55;;
21550;SDS011;10936;49.836;7.078;2022-07-23T07:03:11;8.15;;;6.60;;
21550;SDS011;10936;49.836;7.078;2022-07-23T07:05:36;6.70;;;5.65;;
21550;SDS011;10936;49.836;7.078;2022-07-23T07:08:02;6.82;;;6.10;;
21550;SDS011;10936;49.836;7.078;2022-07-23T07:10:28;6.32;;;5.60;;
21550;SDS011;10936;49.836;7.078;2022-07-23T07:12:53;6.40;;;5.57;;
21550;SDS011;10936;49.836;7.078;2022-07-23T07:15:19;6.93;;;5.72;;
21550;SDS011;10936;49.836;7.078;2022-07-23T07:17:45;6.90;;;6.20;;
21550;SDS011;10936;49.836;7.078;2022-07-23T07:20:11;6.93;;;5.82;;
21550;SDS011;10936;49.836;7.078;2022-07-23T07:22:36;7.93;;;5.93;;
21550;SDS011;10936;49.836;7.078;2022-07-23T07:25:02;6.55;;;5.43;;
21550;SDS011;10936;49.836;7.078;2022-07-23T07:27:28;8.32;;;5.80;;
21550;SDS011;10936;49.836;7.078;2022-07-23T07:29:54;6.57;;;5.82;;
21550;SDS011;10936;49.836;7.078;2022-07-23T07:32:19;7.45;;;5.43;;
21550;SDS011;10936;49.836;7.078;2022-07-23T07:34:45;7.05;;;5.28;;
21550;SDS011;10936;49.836;7.078;2022-07-23T07:37:11;5.65;;;5.15;;
21550;SDS011;10936;49.836;7.078;2022-07-23T07:39:36;6.45;;;5.68;;
21550;SDS011;10936;49.836;7.078;2022-07-23T07:42:02;6.68;;;5.55;;
21550;SDS011;10936;49.836;7.078;2022-07-23T07:44:28;7.35;;;5.53;;
21550;SDS011;10936;49.836;7.078;2022-07-23T07:46:54;6.80;;;5.53;;
21550;SDS011;10936;49.836;7.078;2022-07-23T07:49:19;5.78;;;5.18;;
21550;SDS011;10936;49.836;7.078;2022-07-23T07:51:45;8.45;;;5.68;;
21550;SDS011;10936;49.836;7.078;2022-07-23T07:54:11;5.75;;;5.10;;
21550;SDS011;10936;49.836;7.078;2022-07-23T07:56:37;5.85;;;5.13;;
21550;SDS011;10936;49.836;7.078;2022-07-23T07:59:03;6.03;;;5.40;;
21550;SDS011;10936;49.836;7.078;2022-07-23T08:01:29;6.28;;;5.35;;
21550;SDS011;10936;49.836;7.078;2022-07-23T08:03:55;7.57;;;5.47;;
21550;SDS011;10936;49.836;7.078;2022-07-23T08:06:20;5.55;;;5.00;;
21550;SDS011;10936;49.836;7.078;2022-07-23T08:08:46;5.78;;;5.25;;
21550;SDS011;10936;49.836;7.078;2022-07-23T08:11:13;6.07;;;5.35;;
21550;SDS011;10936;49.836;7.078;2022-07-23T08:13:38;6.32;;;5.32;;
21550;SDS011;10936;49.836;7.078;2022-07-23T08:16:04;5.70;;;5.15;;
21550;SDS011;10936;49.836;7.078;2022-07-23T08:18:30;5.28;;;4.78;;
21550;SDS011;10936;49.836;7.078;2022-07-23T08:20:56;6.78;;;4.93;;
21550;SDS011;10936;49.836;7.078;2022-07-23T08:23:22;5.20;;;4.70;;
21550;SDS011;10936;49.836;7.078;2022-07-23T08:25:48;5.90;;;4.93;;
21550;SDS011;10936;49.836;7.078;2022-07-23T08:28:14;5.95;;;5.20;;
21550;SDS011;10936;49.836;7.078;2022-07-23T08:30:40;6.25;;;5.25;;
21550;SDS011;10936;49.836;7.078;2022-07-23T08:33:12;6.75;;;5.15;;
21550;SDS011;10936;49.836;7.078;2022-07-23T08:35:43;6.75;;;4.85;;
21550;SDS011;10936;49.836;7.078;2022-07-23T08:38:14;5.45;;;4.80;;
21550;SDS011;10936;49.836;7.078;2022-07-23T08:40:43;5.90;;;5.30;;
21550;SDS011;10936;49.836;7.078;2022-07-23T08:43:12;6.07;;;5.03;;
21550;SDS011;10936;49.836;7.078;2022-07-23T08:45:40;6.40;;;5.18;;
21550;SDS011;10936;49.836;7.078;2022-07-23T08:48:09;5.95;;;4.95;;
21550;SDS011;10936;49.836;7.078;2022-07-23T08:50:37;6.30;;;4.90;;
21550;SDS011;10936;49.836;7.078;2022-07-23T08:53:08;6.63;;;4.75;;
21550;SDS011;10936;49.836;7.078;2022-07-23T08:55:35;5.80;;;4.57;;
21550;SDS011;10936;49.836;7.078;2022-07-23T08:58:01;6.28;;;5.30;;
21550;SDS011;10936;49.836;7.078;2022-07-23T09:00:27;5.50;;;5.00;;
21550;SDS011;10936;49.836;7.078;2022-07-23T09:02:53;5.65;;;5.05;;
21550;SDS011;10936;49.836;7.078;2022-07-23T09:05:19;5.20;;;4.70;;
21550;SDS011;10936;49.836;7.078;2022-07-23T09:16:05;5.80;;;5.20;;
21550;SDS011;10936;49.836;7.078;2022-07-23T09:21:14;4.68;;;4.25;;
21550;SDS011;10936;49.836;7.078;2022-07-23T09:23:47;5.78;;;4.63;;
21550;SDS011;10936;49.836;7.078;2022-07-23T09:26:26;5.78;;;4.57;;
21550;SDS011;10936;49.836;7.078;2022-07-23T09:31:51;6.55;;;4.88;;
21550;SDS011;10936;49.836;7.078;2022-07-23T09:36:56;6.68;;;4.68;;
21550;SDS011;10936;49.836;7.078;2022-07-23T09:39:28;5.53;;;4.82;;
21550;SDS011;10936;49.836;7.078;2022-07-23T09:41:55;4.57;;;4.10;;
21550;SDS011;10936;49.836;7.078;2022-07-23T09:44:22;6.13;;;4.80;;
21550;SDS011;10936;49.836;7.078;2022-07-23T09:46:48;4.47;;;4.07;;
21550;SDS011;10936;49.836;7.078;2022-07-23T09:49:22;4.90;;;4.43;;
21550;SDS011;10936;49.836;7.078;2022-07-23T09:54:27;4.82;;;4.38;;
21550;SDS011;10936;49.836;7.078;2022-07-23T09:57:01;4.90;;;4.40;;
21550;SDS011;10936;49.836;7.078;2022-07-23T09:59:30;4.80;;;4.40;;
21550;SDS011;10936;49.836;7.078;2022-07-23T10:01:59;4.97;;;4.47;;
21550;SDS011;10936;49.836;7.078;2022-07-23T10:04:26;5.55;;;5.05;;
21550;SDS011;10936;49.836;7.078;2022-07-23T10:06:55;6.18;;;4.70;;
21550;SDS011;10936;49.836;7.078;2022-07-23T10:09:26;4.80;;;4.40;;
21550;SDS011;10936;49.836;7.078;2022-07-23T10:11:58;4.85;;;4.45;;
21550;SDS011;10936;49.836;7.078;2022-07-23T10:14:49;5.63;;;5.03;;
21550;SDS011;10936;49.836;7.078;2022-07-23T10:17:15;4.45;;;4.05;;
21550;SDS011;10936;49.836;7.078;2022-07-23T10:19:41;5.15;;;4.38;;
21550;SDS011;10936;49.836;7.078;2022-07-23T10:22:13;6.10;;;4.72;;
21550;SDS011;10936;49.836;7.078;2022-07-23T10:41:34;6.13;;;5.53;;
21550;SDS011;10936;49.836;7.078;2022-07-23T10:44:09;5.50;;;5.00;;
21550;SDS011;10936;49.836;7.078;2022-07-23T10:50:17;5.13;;;4.63;;
21550;SDS011;10936;49.836;7.078;2022-07-23T10:58:00;5.75;;;4.85;;
21550;SDS011;10936;49.836;7.078;2022-07-23T11:00:30;5.75;;;5.15;;
21550;SDS011;10936;49.836;7.078;2022-07-23T11:03:01;5.47;;;4.65;;
21550;SDS011;10936;49.836;7.078;2022-07-23T11:23:59;5.53;;;4.93;;
21550;SDS011;10936;49.836;7.078;2022-07-23T11:32:07;6.60;;;4.40;;
21550;SDS011;10936;49.836;7.078;2022-07-23T11:34:53;5.53;;;4.90;;
21550;SDS011;10936;49.836;7.078;2022-07-23T11:37:38;4.95;;;4.20;;
21550;SDS011;10936;49.836;7.078;2022-07-23T11:40:07;5.50;;;4.95;;
21550;SDS011;10936;49.836;7.078;2022-07-23T11:42:36;5.15;;;4.50;;
21550;SDS011;10936;49.836;7.078;2022-07-23T11:45:04;5.20;;;4.70;;
21550;SDS011;10936;49.836;7.078;2022-07-23T11:47:31;4.80;;;4.40;;
21550;SDS011;10936;49.836;7.078;2022-07-23T11:49:57;5.30;;;4.80;;
21550;SDS011;10936;49.836;7.078;2022-07-23T11:52:24;6.63;;;4.57;;
21550;SDS011;10936;49.836;7.078;2022-07-23T11:54:57;5.38;;;4.53;;
21550;SDS011;10936;49.836;7.078;2022-07-23T11:57:31;5.43;;;4.93;;
21550;SDS011;10936;49.836;7.078;2022-07-23T12:00:10;6.20;;;4.85;;
21550;SDS011;10936;49.836;7.078;2022-07-23T12:02:38;5.32;;;4.82;;
21550;SDS011;10936;49.836;7.078;2022-07-23T12:05:15;5.57;;;5.07;;
21550;SDS011;10936;49.836;7.078;2022-07-23T12:07:47;5.32;;;4.25;;
21550;SDS011;10936;49.836;7.078;2022-07-23T12:10:21;5.10;;;4.60;;
21550;SDS011;10936;49.836;7.078;2022-07-23T12:13:08;5.20;;;4.63;;
21550;SDS011;10936;49.836;7.078;2022-07-23T12:15:37;5.82;;;4.30;;
21550;SDS011;10936;49.836;7.078;2022-07-23T12:18:08;5.55;;;4.80;;
21550;SDS011;10936;49.836;7.078;2022-07-23T12:20:40;4.40;;;4.00;;
21550;SDS011;10936;49.836;7.078;2022-07-23T12:23:08;5.10;;;4.60;;
21550;SDS011;10936;49.836;7.078;2022-07-23T12:25:38;5.50;;;5.00;;
21550;SDS011;10936;49.836;7.078;2022-07-23T12:30:40;5.95;;;4.65;;
21550;SDS011;10936;49.836;7.078;2022-07-23T12:33:08;5.82;;;4.70;;
21550;SDS011;10936;49.836;7.078;2022-07-23T12:35:40;4.95;;;4.47;;
21550;SDS011;10936;49.836;7.078;2022-07-23T12:38:08;5.90;;;4.80;;
21550;SDS011;10936;49.836;7.078;2022-07-23T12:40:42;5.25;;;4.70;;
21550;SDS011;10936;49.836;7.078;2022-07-23T12:43:19;5.68;;;4.20;;
21550;SDS011;10936;49.836;7.078;2022-07-23T12:45:52;4.80;;;4.35;;
21550;SDS011;10936;49.836;7.078;2022-07-23T12:48:29;7.30;;;4.40;;
21550;SDS011;10936;49.836;7.078;2022-07-23T12:53:30;4.80;;;4.25;;
21550;SDS011;10936;49.836;7.078;2022-07-23T12:56:14;5.03;;;4.53;;
21550;SDS011;10936;49.836;7.078;2022-07-23T12:58:54;5.22;;;4.72;;
21550;SDS011;10936;49.836;7.078;2022-07-23T13:01:33;4.97;;;4.47;;
21550;SDS011;10936;49.836;7.078;2022-07-23T13:06:26;5.15;;;4.65;;
21550;SDS011;10936;49.836;7.078;2022-07-23T13:08:54;5.00;;;4.50;;
21550;SDS011;10936;49.836;7.078;2022-07-23T13:11:19;6.50;;;5.40;;
21550;SDS011;10936;49.836;7.078;2022-07-23T13:13:45;7.03;;;5.38;;
21550;SDS011;10936;49.836;7.078;2022-07-23T13:16:11;6.85;;;5.50;;
21550;SDS011;10936;49.836;7.078;2022-07-23T13:18:37;5.93;;;5.25;;
21550;SDS011;10936;49.836;7.078;2022-07-23T13:21:03;6.00;;;5.10;;
21550;SDS011;10936;49.836;7.078;2022-07-23T13:23:28;7.78;;;5.90;;
21550;SDS011;10936;49.836;7.078;2022-07-23T13:25:54;6.35;;;5.43;;
21550;SDS011;10936;49.836;7.078;2022-07-23T13:28:20;6.22;;;5.38;;
21550;SDS011;10936;49.836;7.078;2022-07-23T13:30:47;7.25;;;5.75;;
21550;SDS011;10936;49.836;7.078;2022-07-23T13:33:15;6.63;;;5.68;;
21550;SDS011;10936;49.836;7.078;2022-07-23T13:35:45;6.22;;;5.35;;
21550;SDS011;10936;49.836;7.078;2022-07-23T13:38:11;6.60;;;5.80;;
21550;SDS011;10936;49.836;7.078;2022-07-23T13:40:37;8.25;;;5.70;;
21550;SDS011;10936;49.836;7.078;2022-07-23T13:43:06;7.47;;;5.88;;
21550;SDS011;10936;49.836;7.078;2022-07-23T13:45:32;7.10;;;5.72;;
21550;SDS011;10936;49.836;7.078;2022-07-23T13:47:58;6.15;;;5.55;;
21550;SDS011;10936;49.836;7.078;2022-07-23T13:50:24;4.90;;;4.47;;
21550;SDS011;10936;49.836;7.078;2022-07-23T13:52:50;6.05;;;5.38;;
21550;SDS011;10936;49.836;7.078;2022-07-23T13:55:15;5.47;;;4.88;;
21550;SDS011;10936;49.836;7.078;2022-07-23T13:57:41;5.38;;;4.88;;
21550;SDS011;10936;49.836;7.078;2022-07-23T14:00:08;6.43;;;4.78;;
21550;SDS011;10936;49.836;7.078;2022-07-23T14:02:38;5.47;;;4.95;;
21550;SDS011;10936;49.836;7.078;2022-07-23T14:05:05;5.50;;;5.00;;
21550;SDS011;10936;49.836;7.078;2022-07-23T14:07:33;6.25;;;4.97;;
21550;SDS011;10936;49.836;7.078;2022-07-23T14:10:00;5.80;;;5.30;;
21550;SDS011;10936;49.836;7.078;2022-07-23T14:12:26;6.53;;;4.90;;
21550;SDS011;10936;49.836;7.078;2022-07-23T14:14:52;5.28;;;4.78;;
21550;SDS011;10936;49.836;7.078;2022-07-23T14:17:18;6.38;;;5.13;;
21550;SDS011;10936;49.836;7.078;2022-07-23T14:19:43;4.85;;;4.45;;
21550;SDS011;10936;49.836;7.078;2022-07-23T14:22:09;5.65;;;5.05;;
21550;SDS011;10936;49.836;7.078;2022-07-23T14:24:35;5.18;;;4.65;;
21550;SDS011;10936;49.836;7.078;2022-07-23T14:27:02;5.95;;;4.85;;
21550;SDS011;10936;49.836;7.078;2022-07-23T14:29:29;6.18;;;4.93;;
21550;SDS011;10936;49.836;7.078;2022-07-23T14:31:55;5.43;;;4.90;;
21550;SDS011;10936;49.836;7.078;2022-07-23T14:34:21;4.97;;;4.47;;
21550;SDS011;10936;49.836;7.078;2022-07-23T14:36:47;5.53;;;5.03;;
21550;SDS011;10936;49.836;7.078;2022-07-23T14:39:12;5.70;;;4.93;;
21550;SDS011;10936;49.836;7.078;2022-07-23T14:41:38;5.30;;;4.80;;
21550;SDS011;10936;49.836;7.078;2022-07-23T14:44:04;5.82;;;5.20;;
21550;SDS011;10936;49.836;7.078;2022-07-23T14:46:30;5.20;;;4.70;;
21550;SDS011;10936;49.836;7.078;2022-07-23T14:48:56;5.35;;;4.80;;
21550;SDS011;10936;49.836;7.078;2022-07-23T14:51:22;5.63;;;4.85;;
21550;SDS011;10936;49.836;7.078;2022-07-23T14:53:48;5.40;;;4.90;;
21550;SDS011;10936;49.836;7.078;2022-07-23T14:56:14;5.28;;;4.78;;
21550;SDS011;10936;49.836;7.078;2022-07-23T14:58:40;4.97;;;4.57;;
21550;SDS011;10936;49.836;7.078;2022-07-23T15:01:06;5.20;;;4.70;;
21550;SDS011;10936;49.836;7.078;2022-07-23T15:03:32;5.85;;;5.25;;
21550;SDS011;10936;49.836;7.078;2022-07-23T15:05:58;5.18;;;4.65;;
21550;SDS011;10936;49.836;7.078;2022-07-23T15:08:24;5.25;;;4.82;;
21550;SDS011;10936;49.836;7.078;2022-07-23T15:10:50;5.30;;;4.80;;
21550;SDS011;10936;49.836;7.078;2022-07-23T15:13:16;8.05;;;5.18;;
21550;SDS011;10936;49.836;7.078;2022-07-23T15:15:41;4.93;;;4.43;;
21550;SDS011;10936;49.836;7.078;2022-07-23T15:18:07;5.47;;;4.97;;
21550;SDS011;10936;49.836;7.078;2022-07-23T15:20:33;6.63;;;5.30;;
21550;SDS011;10936;49.836;7.078;2022-07-23T15:22:59;5.32;;;4.82;;
21550;SDS011;10936;49.836;7.078;2022-07-23T15:25:24;5.55;;;5.05;;
21550;SDS011;10936;49.836;7.078;2022-07-23T15:27:50;4.80;;;4.38;;
21550;SDS011;10936;49.836;7.078;2022-07-23T15:30:17;5.38;;;4.88;;
21550;SDS011;10936;49.836;7.078;2022-07-23T15:32:42;5.15;;;4.65;;
21550;SDS011;10936;49.836;7.078;2022-07-23T15:35:08;5.45;;;4.95;;
21550;SDS011;10936;49.836;7.078;2022-07-23T15:37:34;5.35;;;4.85;;
21550;SDS011;10936;49.836;7.078;2022-07-23T15:40:00;5.85;;;5.25;;
21550;SDS011;10936;49.836;7.078;2022-07-23T15:42:29;5.03;;;4.53;;
21550;SDS011;10936;49.836;7.078;2022-07-23T15:44:55;5.10;;;4.60;;
21550;SDS011;10936;49.836;7.078;2022-07-23T15:47:21;4.63;;;4.20;;
21550;SDS011;10936;49.836;7.078;2022-07-23T15:49:47;5.40;;;4.90;;
21550;SDS011;10936;49.836;7.078;2022-07-23T15:52:13;4.97;;;4.25;;
21550;SDS011;10936;49.836;7.078;2022-07-23T15:54:39;5.32;;;4.80;;
21550;SDS011;10936;49.836;7.078;2022-07-23T15:57:05;5.13;;;4.63;;
21550;SDS011;10936;49.836;7.078;2022-07-23T15:59:31;5.25;;;4.75;;
21550;SDS011;10936;49.836;7.078;2022-07-23T16:01:57;6.30;;;5.10;;
21550;SDS011;10936;49.836;7.078;2022-07-23T16:04:23;5.22;;;4.72;;
21550;SDS011;10936;49.836;7.078;2022-07-23T16:06:49;4.93;;;4.43;;
21550;SDS011;10936;49.836;7.078;2022-07-23T16:09:15;4.93;;;4.43;;
21550;SDS011;10936;49.836;7.078;2022-07-23T16:11:41;5.30;;;4.80;;
21550;SDS011;10936;49.836;7.078;2022-07-23T16:14:07;5.22;;;4.72;;
21550;SDS011;10936;49.836;7.078;2022-07-23T16:16:33;4.88;;;4.47;;
21550;SDS011;10936;49.836;7.078;2022-07-23T16:18:59;4.90;;;4.40;;
21550;SDS011;10936;49.836;7.078;2022-07-23T16:21:25;4.88;;;4.40;;
21550;SDS011;10936;49.836;7.078;2022-07-23T16:23:51;6.38;;;4.60;;
21550;SDS011;10936;49.836;7.078;2022-07-23T16:26:17;5.40;;;4.90;;
21550;SDS011;10936;49.836;7.078;2022-07-23T16:28:45;5.78;;;5.03;;
21550;SDS011;10936;49.836;7.078;2022-07-23T16:31:11;4.70;;;4.20;;
21550;SDS011;10936;49.836;7.078;2022-07-23T16:33:37;5.70;;;4.97;;
21550;SDS011;10936;49.836;7.078;2022-07-23T16:36:03;5.45;;;4.95;;
21550;SDS011;10936;49.836;7.078;2022-07-23T16:38:32;5.45;;;4.93;;
21550;SDS011;10936;49.836;7.078;2022-07-23T16:40:58;5.05;;;4.65;;
21550;SDS011;10936;49.836;7.078;2022-07-23T16:43:24;5.18;;;4.70;;
21550;SDS011;10936;49.836;7.078;2022-07-23T16:45:51;5.35;;;4.75;;
21550;SDS011;10936;49.836;7.078;2022-07-23T16:48:18;5.35;;;4.55;;
21550;SDS011;10936;49.836;7.078;2022-07-23T16:50:45;4.50;;;4.10;;
21550;SDS011;10936;49.836;7.078;2022-07-23T16:53:11;4.55;;;4.15;;
21550;SDS011;10936;49.836;7.078;2022-07-23T16:55:37;5.00;;;4.53;;
21550;SDS011;10936;49.836;7.078;2022-07-23T16:58:04;4.78;;;4.30;;
21550;SDS011;10936;49.836;7.078;2022-07-23T17:00:30;4.80;;;4.40;;
21550;SDS011;10936;49.836;7.078;2022-07-23T17:02:57;4.53;;;4.13;;
21550;SDS011;10936;49.836;7.078;2022-07-23T17:05:22;5.60;;;4.72;;
21550;SDS011;10936;49.836;7.078;2022-07-23T17:07:49;4.50;;;4.10;;
21550;SDS011;10936;49.836;7.078;2022-07-23T17:10:15;4.82;;;4.43;;
21550;SDS011;10936;49.836;7.078;2022-07-23T17:12:41;4.80;;;4.40;;
21550;SDS011;10936;49.836;7.078;2022-07-23T17:15:07;5.03;;;4.60;;
21550;SDS011;10936;49.836;7.078;2022-07-23T17:17:34;5.22;;;4.72;;
21550;SDS011;10936;49.836;7.078;2022-07-23T17:20:01;4.63;;;4.22;;
21550;SDS011;10936;49.836;7.078;2022-07-23T17:22:29;5.22;;;4.53;;
21550;SDS011;10936;49.836;7.078;2022-07-23T17:24:55;5.30;;;4.80;;
21550;SDS011;10936;49.836;7.078;2022-07-23T17:27:20;4.85;;;4.45;;
21550;SDS011;10936;49.836;7.078;2022-07-23T17:29:46;6.35;;;4.35;;
21550;SDS011;10936;49.836;7.078;2022-07-23T17:32:11;4.63;;;4.22;;
21550;SDS011;10936;49.836;7.078;2022-07-23T17:34:37;5.75;;;4.72;;
21550;SDS011;10936;49.836;7.078;2022-07-23T17:37:03;5.10;;;4.60;;
21550;SDS011;10936;49.836;7.078;2022-07-23T17:39:29;5.75;;;5.05;;
21550;SDS011;10936;49.836;7.078;2022-07-23T17:41:55;6.03;;;5.38;;
21550;SDS011;10936;49.836;7.078;2022-07-23T17:44:21;6.25;;;5.32;;
21550;SDS011;10936;49.836;7.078;2022-07-23T17:46:47;5.97;;;5.38;;
21550;SDS011;10936;49.836;7.078;2022-07-23T17:49:12;5.57;;;5.03;;
21550;SDS011;10936;49.836;7.078;2022-07-23T17:51:38;5.38;;;4.75;;
21550;SDS011;10936;49.836;7.078;2022-07-23T17:54:04;4.85;;;4.40;;
21550;SDS011;10936;49.836;7.078;2022-07-23T17:56:30;4.35;;;3.95;;
21550;SDS011;10936;49.836;7.078;2022-07-23T17:58:56;4.70;;;4.30;;
21550;SDS011;10936;49.836;7.078;2022-07-23T18:01:22;5.13;;;4.60;;
21550;SDS011;10936;49.836;7.078;2022-07-23T18:03:47;5.25;;;4.75;;
21550;SDS011;10936;49.836;7.078;2022-07-23T18:06:15;6.22;;;4.78;;
21550;SDS011;10936;49.836;7.078;2022-07-23T18:08:42;5.45;;;4.95;;
21550;SDS011;10936;49.836;7.078;2022-07-23T18:11:08;6.03;;;4.88;;
21550;SDS011;10936;49.836;7.078;2022-07-23T18:13:34;5.78;;;5.18;;
21550;SDS011;10936;49.836;7.078;2022-07-23T18:16:00;6.20;;;5.03;;
21550;SDS011;10936;49.836;7.078;2022-07-23T18:18:25;7.38;;;5.32;;
21550;SDS011;10936;49.836;7.078;2022-07-23T18:20:53;6.00;;;5.40;;
21550;SDS011;10936;49.836;7.078;2022-07-23T18:23:19;5.75;;;5.20;;
21550;SDS011;10936;49.836;7.078;2022-07-23T18:25:45;6.40;;;5.78;;
21550;SDS011;10936;49.836;7.078;2022-07-23T18:28:12;5.88;;;5.03;;
21550;SDS011;10936;49.836;7.078;2022-07-23T18:30:38;7.60;;;5.18;;
21550;SDS011;10936;49.836;7.078;2022-07-23T18:33:03;5.80;;;5.25;;
21550;SDS011;10936;49.836;7.078;2022-07-23T18:35:29;6.47;;;5.30;;
21550;SDS011;10936;49.836;7.078;2022-07-23T18:37:55;5.80;;;5.18;;
21550;SDS011;10936;49.836;7.078;2022-07-23T18:40:21;6.60;;;5.50;;
21550;SDS011;10936;49.836;7.078;2022-07-23T18:42:47;6.20;;;5.60;;
21550;SDS011;10936;49.836;7.078;2022-07-23T18:45:13;7.47;;;5.57;;
21550;SDS011;10936;49.836;7.078;2022-07-23T18:47:39;5.95;;;5.35;;
21550;SDS011;10936;49.836;7.078;2022-07-23T18:50:06;6.93;;;5.50;;
21550;SDS011;10936;49.836;7.078;2022-07-23T18:52:34;7.70;;;5.30;;
21550;SDS011;10936;49.836;7.078;2022-07-23T18:55:00;7.47;;;5.30;;
21550;SDS011;10936;49.836;7.078;2022-07-23T18:57:25;6.07;;;5.43;;
21550;SDS011;10936;49.836;7.078;2022-07-23T18:59:51;5.63;;;5.13;;
21550;SDS011;10936;49.836;7.078;2022-07-23T19:02:17;6.35;;;4.90;;
21550;SDS011;10936;49.836;7.078;2022-07-23T19:04:43;5.63;;;4.80;;
21550;SDS011;10936;49.836;7.078;2022-07-23T19:07:09;6.32;;;5.40;;
21550;SDS011;10936;49.836;7.078;2022-07-23T19:09:34;6.32;;;5.13;;
21550;SDS011;10936;49.836;7.078;2022-07-23T19:12:00;5.85;;;4.93;;
21550;SDS011;10936;49.836;7.078;2022-07-23T19:14:26;6.72;;;5.10;;
21550;SDS011;10936;49.836;7.078;2022-07-23T19:16:53;6.25;;;5.13;;
21550;SDS011;10936;49.836;7.078;2022-07-23T19:19:18;7.82;;;5.63;;
21550;SDS011;10936;49.836;7.078;2022-07-23T19:21:44;5.35;;;4.95;;
21550;SDS011;10936;49.836;7.078;2022-07-23T19:24:10;5.57;;;5.07;;
21550;SDS011;10936;49.836;7.078;2022-07-23T19:26:36;6.05;;;5.00;;
21550;SDS011;10936;49.836;7.078;2022-07-23T19:29:02;5.25;;;4.75;;
21550;SDS011;10936;49.836;7.078;2022-07-23T19:31:28;5.70;;;5.10;;
21550;SDS011;10936;49.836;7.078;2022-07-23T19:33:54;9.38;;;5.22;;
21550;SDS011;10936;49.836;7.078;2022-07-23T19:36:20;5.55;;;5.00;;
21550;SDS011;10936;49.836;7.078;2022-07-23T19:38:46;6.18;;;5.45;;
21550;SDS011;10936;49.836;7.078;2022-07-23T19:41:11;5.85;;;5.35;;
21550;SDS011;10936;49.836;7.078;2022-07-23T19:43:37;8.63;;;5.43;;
21550;SDS011;10936;49.836;7.078;2022-07-23T19:46:03;6.93;;;5.57;;
21550;SDS011;10936;49.836;7.078;2022-07-23T19:48:29;5.53;;;5.03;;
21550;SDS011;10936;49.836;7.078;2022-07-23T19:50:55;5.90;;;5.32;;
21550;SDS011;10936;49.836;7.078;2022-07-23T19:53:21;5.53;;;5.03;;
21550;SDS011;10936;49.836;7.078;2022-07-23T19:55:47;6.30;;;4.72;;
21550;SDS011;10936;49.836;7.078;2022-07-23T19:58:12;6.00;;;5.40;;
21550;SDS011;10936;49.836;7.078;2022-07-23T20:00:39;7.25;;;4.72;;
21550;SDS011;10936;49.836;7.078;2022-07-23T20:03:05;7.15;;;5.38;;
21550;SDS011;10936;49.836;7.078;2022-07-23T20:05:31;6.05;;;5.45;;
21550;SDS011;10936;49.836;7.078;2022-07-23T20:07:57;5.50;;;5.00;;
21550;SDS011;10936;49.836;7.078;2022-07-23T20:10:23;5.82;;;4.95;;
21550;SDS011;10936;49.836;7.078;2022-07-23T20:12:50;9.52;;;5.50;;
21550;SDS011;10936;49.836;7.078;2022-07-23T20:15:18;5.40;;;4.90;;
21550;SDS011;10936;49.836;7.078;2022-07-23T20:17:45;6.30;;;5.10;;
21550;SDS011;10936;49.836;7.078;2022-07-23T20:20:11;5.80;;;5.10;;
21550;SDS011;10936;49.836;7.078;2022-07-23T20:22:37;5.47;;;4.97;;
21550;SDS011;10936;49.836;7.078;2022-07-23T20:25:04;6.43;;;5.03;;
21550;SDS011;10936;49.836;7.078;2022-07-23T20:27:30;5.47;;;4.97;;
21550;SDS011;10936;49.836;7.078;2022-07-23T20:29:56;6.30;;;5.30;;
21550;SDS011;10936;49.836;7.078;2022-07-23T20:32:22;5.68;;;4.97;;
21550;SDS011;10936;49.836;7.078;2022-07-23T20:34:48;7.05;;;5.18;;
21550;SDS011;10936;49.836;7.078;2022-07-23T20:37:13;5.72;;;5.20;;
21550;SDS011;10936;49.836;7.078;2022-07-23T20:39:40;5.93;;;5.00;;
21550;SDS011;10936;49.836;7.078;2022-07-23T20:42:07;5.43;;;4.93;;
21550;SDS011;10936;49.836;7.078;2022-07-23T20:44:32;6.60;;;5.30;;
21550;SDS011;10936;49.836;7.078;2022-07-23T20:46:58;6.28;;;5.63;;
21550;SDS011;10936;49.836;7.078;2022-07-23T20:49:24;5.05;;;4.63;;
21550;SDS011;10936;49.836;7.078;2022-07-23T20:51:50;5.93;;;5.38;;
21550;SDS011;10936;49.836;7.078;2022-07-23T20:54:16;5.93;;;5.32;;
21550;SDS011;10936;49.836;7.078;2022-07-23T20:56:42;9.68;;;5.25;;
21550;SDS011;10936;49.836;7.078;2022-07-23T20:59:07;7.20;;;5.00;;
21550;SDS011;10936;49.836;7.078;2022-07-23T21:01:33;5.40;;;4.90;;